Time;durP1;ratioP1;P1;durP2;ratioP2;P2;SDS_P1;SDS_P2;PMS_P1;PMS_P2;Temp;Humidity;BMP_temperature;BMP_pressure;BME280_temperature;BME280_humidity;BME280_pressure;Samples;Min_cycle;Max_cycle;Signal;HPM_P1;HPM_P2
2020/12/01 00:00:00;;;;;;;31.70;18.30;;;10.40;81.60;;;;;;5029063;28;20046;-70
2020/12/01 00:02:26;;;;;;;28.77;18.20;;;10.50;81.70;;;;;;5027920;28;20459;-70
2020/12/01 00:04:52;;;;;;;30.45;18.00;;;10.40;81.80;;;;;;5028680;28;20415;-70
2020/12/01 00:07:18;;;;;;;27.63;17.88;;;10.50;81.70;;;;;;5027780;28;20037;-70
2020/12/01 00:09:44;;;;;;;26.45;16.08;;;10.50;81.50;;;;;;5028405;28;20438;-70
2020/12/01 00:12:10;;;;;;;28.42;15.73;;;10.60;81.30;;;;;;5029029;28;20355;-73
2020/12/01 00:14:36;;;;;;;24.65;15.90;;;10.70;81.20;;;;;;5028841;28;20030;-70
2020/12/01 00:17:02;;;;;;;27.35;17.23;;;10.70;81.10;;;;;;5027437;28;20461;-69
2020/12/01 00:19:27;;;;;;;24.60;15.80;;;10.70;80.90;;;;;;5027077;28;20052;-70
2020/12/01 00:21:53;;;;;;;26.20;15.48;;;10.80;80.80;;;;;;5028124;28;20038;-70
2020/12/01 00:24:19;;;;;;;23.42;14.77;;;10.80;80.50;;;;;;5027305;28;20044;-70
2020/12/01 00:26:45;;;;;;;27.80;16.35;;;10.90;80.30;;;;;;5028561;28;20030;-70
2020/12/01 00:29:11;;;;;;;26.80;16.75;;;10.90;80.10;;;;;;5046204;28;20033;-75
2020/12/01 00:31:41;;;;;;;25.67;15.18;;;10.90;80.00;;;;;;5031616;28;20116;-71
2020/12/01 00:34:11;;;;;;;24.58;14.55;;;10.90;79.80;;;;;;5029114;28;20048;-70
2020/12/01 00:36:37;;;;;;;21.52;13.65;;;10.90;79.70;;;;;;5045831;28;20033;-70
2020/12/01 00:39:05;;;;;;;24.70;15.82;;;10.90;79.60;;;;;;5030774;28;20055;-69
2020/12/01 00:41:30;;;;;;;26.42;14.80;;;10.90;79.50;;;;;;5021684;28;20087;-70
2020/12/01 00:43:56;;;;;;;24.45;14.55;;;10.90;79.50;;;;;;5040146;28;20037;-70
2020/12/01 00:46:22;;;;;;;24.67;15.32;;;10.90;79.30;;;;;;5028801;28;20080;-69
2020/12/01 00:48:47;;;;;;;23.42;14.48;;;10.90;79.20;;;;;;5028409;28;20068;-71
2020/12/01 00:51:14;;;;;;;22.92;15.82;;;10.90;79.20;;;;;;5023532;28;20033;-70
2020/12/01 00:53:39;;;;;;;22.85;14.20;;;10.90;79.10;;;;;;5028517;28;20335;-70
2020/12/01 00:56:05;;;;;;;20.85;13.88;;;10.90;79.10;;;;;;5029306;28;20033;-70
2020/12/01 00:58:31;;;;;;;25.30;16.05;;;10.90;79.30;;;;;;5026725;28;20072;-69
2020/12/01 01:00:57;;;;;;;28.13;15.75;;;10.80;79.40;;;;;;5029534;28;20121;-70
2020/12/01 01:03:22;;;;;;;34.45;18.77;;;10.80;79.70;;;;;;5028095;28;20037;-70
2020/12/01 01:05:48;;;;;;;32.28;17.85;;;10.80;79.90;;;;;;5039473;28;20085;-70
2020/12/01 01:08:14;;;;;;;28.40;17.38;;;10.70;80.20;;;;;;5030889;28;20477;-70
2020/12/01 01:10:39;;;;;;;34.10;18.50;;;10.80;80.60;;;;;;5013915;28;20030;-70
2020/12/01 01:13:05;;;;;;;32.08;20.10;;;10.70;80.80;;;;;;5032353;28;20544;-72
2020/12/01 01:15:33;;;;;;;29.15;17.80;;;10.70;81.00;;;;;;5031884;28;20398;-69
2020/12/01 01:18:00;;;;;;;28.75;17.27;;;10.80;80.90;;;;;;5031454;28;20044;-69
2020/12/01 01:20:26;;;;;;;25.50;14.32;;;10.80;80.90;;;;;;5031130;28;20555;-70
2020/12/01 01:22:52;;;;;;;22.40;13.52;;;10.80;81.10;;;;;;5030122;28;20022;-72
2020/12/01 01:25:18;;;;;;;23.85;12.77;;;10.80;81.10;;;;;;5030886;28;20385;-70
2020/12/01 01:27:47;;;;;;;24.15;13.30;;;10.80;81.50;;;;;;5031862;28;20033;-70
2020/12/01 01:30:15;;;;;;;19.42;12.35;;;10.80;81.80;;;;;;5031731;28;20538;-70
2020/12/01 01:32:40;;;;;;;22.55;11.82;;;10.80;82.10;;;;;;5030957;28;20112;-69
2020/12/01 01:35:06;;;;;;;22.58;12.65;;;10.80;82.10;;;;;;5031277;28;20522;-70
2020/12/01 01:37:31;;;;;;;21.55;12.20;;;10.80;82.10;;;;;;5031711;28;20481;-70
2020/12/01 01:39:57;;;;;;;19.55;11.25;;;10.80;82.10;;;;;;5029849;28;20065;-70
2020/12/01 01:42:23;;;;;;;26.77;12.82;;;10.80;82.30;;;;;;5013378;28;20036;-70
2020/12/01 01:44:49;;;;;;;21.77;11.70;;;10.80;82.30;;;;;;5031225;28;20343;-70
2020/12/01 01:47:29;;;;;;;20.27;10.95;;;10.80;82.50;;;;;;5032764;28;20394;-70
2020/12/01 01:50:14;;;;;;;26.55;11.10;;;10.80;82.50;;;;;;5030061;28;20112;-69
2020/12/01 01:52:43;;;;;;;24.50;10.68;;;10.80;82.30;;;;;;5030196;28;20116;-71
2020/12/01 01:55:15;;;;;;;17.08;8.68;;;10.80;82.30;;;;;;5030755;28;20121;-70
2020/12/01 01:57:45;;;;;;;18.60;8.70;;;10.90;82.20;;;;;;5030045;28;20521;-70
2020/12/01 02:00:33;;;;;;;19.83;9.10;;;10.90;82.00;;;;;;5029656;28;20034;-76
2020/12/01 02:02:59;;;;;;;19.80;7.70;;;10.80;81.90;;;;;;5029547;28;20030;-69
2020/12/01 02:05:24;;;;;;;15.85;6.80;;;10.80;81.90;;;;;;5031116;28;20363;-69
2020/12/01 02:07:50;;;;;;;21.20;7.28;;;10.80;82.00;;;;;;5031915;28;20112;-73
2020/12/01 02:10:16;;;;;;;15.98;6.53;;;10.70;82.20;;;;;;5012262;28;20107;-70
2020/12/01 02:12:43;;;;;;;20.70;5.90;;;10.70;82.40;;;;;;5031060;28;20045;-70
2020/12/01 02:15:10;;;;;;;12.90;5.45;;;10.70;82.40;;;;;;5030065;28;20036;-71
2020/12/01 02:17:37;;;;;;;20.63;6.40;;;10.70;82.30;;;;;;5031725;28;20037;-69
2020/12/01 02:20:16;;;;;;;15.30;5.00;;;10.60;82.10;;;;;;5030913;28;20034;-70
2020/12/01 02:22:46;;;;;;;14.57;4.20;;;10.60;82.10;;;;;;5030419;28;20094;-69
2020/12/01 02:25:14;;;;;;;14.07;4.13;;;10.70;82.00;;;;;;5032678;28;20041;-70
2020/12/01 02:27:40;;;;;;;11.13;3.83;;;10.60;81.80;;;;;;5035961;28;20029;-69
2020/12/01 02:30:11;;;;;;;13.55;4.47;;;10.60;81.80;;;;;;5029724;28;20079;-69
2020/12/01 02:32:38;;;;;;;19.23;3.67;;;10.60;81.80;;;;;;5029073;28;20112;-69
2020/12/01 02:35:09;;;;;;;9.00;3.42;;;10.60;81.80;;;;;;5031767;28;20259;-70
2020/12/01 02:37:37;;;;;;;13.82;3.22;;;10.60;81.60;;;;;;5051317;28;20064;-69
2020/12/01 02:40:13;;;;;;;16.23;3.88;;;10.60;81.40;;;;;;5034614;28;20040;-71
2020/12/01 02:42:39;;;;;;;14.10;2.88;;;10.60;81.50;;;;;;5030897;28;20482;-69
2020/12/01 02:45:06;;;;;;;13.45;4.60;;;10.50;81.40;;;;;;5012337;28;20097;-69
2020/12/01 02:47:31;;;;;;;9.85;3.15;;;10.60;81.40;;;;;;5029925;28;20041;-71
2020/12/01 02:49:57;;;;;;;13.90;3.40;;;10.60;81.30;;;;;;5028580;28;20060;-71
2020/12/01 02:52:23;;;;;;;16.73;3.78;;;10.60;81.10;;;;;;5027523;28;20068;-71
2020/12/01 02:54:50;;;;;;;12.07;2.72;;;10.60;80.90;;;;;;5026111;28;20021;-72
2020/12/01 02:57:17;;;;;;;12.50;3.90;;;10.60;80.60;;;;;;5028114;28;20025;-70
2020/12/01 02:59:42;;;;;;;14.55;2.40;;;10.60;80.40;;;;;;5023736;28;20088;-71
2020/12/01 03:02:08;;;;;;;7.93;2.47;;;10.60;80.40;;;;;;5024355;28;20442;-71
2020/12/01 03:04:34;;;;;;;8.18;2.55;;;10.60;80.20;;;;;;5028888;28;20553;-70
2020/12/01 03:06:59;;;;;;;8.98;3.17;;;10.60;80.20;;;;;;5028830;28;20030;-71
2020/12/01 03:09:25;;;;;;;10.43;3.75;;;10.60;80.20;;;;;;5027809;28;20116;-70
2020/12/01 03:11:51;;;;;;;18.85;3.65;;;10.50;80.20;;;;;;5029447;28;21857;-72
2020/12/01 03:14:18;;;;;;;12.45;2.75;;;10.50;80.30;;;;;;5028983;28;20447;-70
2020/12/01 03:16:46;;;;;;;9.70;2.35;;;10.40;80.40;;;;;;5025594;28;20147;-70
2020/12/01 03:19:13;;;;;;;14.80;3.35;;;10.40;80.50;;;;;;5012352;28;20395;-69
2020/12/01 03:21:38;;;;;;;12.65;2.92;;;10.30;80.70;;;;;;5028721;28;20032;-68
2020/12/01 03:24:04;;;;;;;13.20;3.10;;;10.30;80.80;;;;;;5017323;28;20042;-69
2020/12/01 03:26:29;;;;;;;19.60;3.25;;;10.20;80.80;;;;;;5028212;28;20103;-70
2020/12/01 03:28:55;;;;;;;11.73;2.65;;;10.20;80.90;;;;;;5030262;28;20048;-70
2020/12/01 03:31:21;;;;;;;9.82;2.88;;;10.20;81.20;;;;;;5028867;28;20026;-71
2020/12/01 03:33:48;;;;;;;13.40;3.53;;;10.20;81.20;;;;;;5029563;28;20033;-70
2020/12/01 03:36:14;;;;;;;23.15;4.85;;;10.20;81.20;;;;;;5026951;28;20033;-69
2020/12/01 03:38:40;;;;;;;12.73;2.50;;;10.10;81.20;;;;;;5029329;28;20119;-72
2020/12/01 03:41:05;;;;;;;10.75;4.13;;;10.10;81.20;;;;;;5029274;28;20064;-69
2020/12/01 03:43:32;;;;;;;10.48;2.85;;;10.10;81.10;;;;;;5029108;28;20320;-69
2020/12/01 03:45:58;;;;;;;14.25;2.50;;;10.10;81.10;;;;;;5029493;28;20029;-69
2020/12/01 03:48:23;;;;;;;22.30;4.68;;;10.10;81.20;;;;;;5030756;28;20040;-70
2020/12/01 03:50:49;;;;;;;19.23;3.88;;;10.10;81.30;;;;;;5035476;28;20022;-69
2020/12/01 03:53:15;;;;;;;12.50;3.13;;;10.00;81.50;;;;;;5028437;28;20108;-69
2020/12/01 03:55:40;;;;;;;19.90;4.00;;;10.00;81.60;;;;;;5028152;28;20451;-69
2020/12/01 03:58:06;;;;;;;14.45;2.30;;;10.00;81.80;;;;;;5029221;28;20116;-69
2020/12/01 04:00:32;;;;;;;18.50;4.15;;;9.90;82.00;;;;;;5027956;28;20053;-69
2020/12/01 04:02:58;;;;;;;14.70;3.28;;;10.00;82.10;;;;;;5029049;28;20068;-70
2020/12/01 04:05:26;;;;;;;18.33;2.95;;;10.00;82.10;;;;;;5028009;28;20076;-69
2020/12/01 04:07:52;;;;;;;12.20;2.63;;;10.00;82.00;;;;;;5029749;28;20108;-69
2020/12/01 04:10:20;;;;;;;11.63;2.70;;;10.10;81.90;;;;;;5028092;28;20037;-69
2020/12/01 04:12:46;;;;;;;12.13;2.28;;;10.20;81.60;;;;;;5029066;28;20073;-73
2020/12/01 04:15:14;;;;;;;17.17;2.83;;;10.30;81.50;;;;;;5027509;28;20034;-71
2020/12/01 04:17:40;;;;;;;13.23;2.25;;;10.30;81.50;;;;;;5029055;28;20034;-70
2020/12/01 04:20:06;;;;;;;9.88;2.17;;;10.40;81.60;;;;;;5029440;28;20429;-70
2020/12/01 04:22:33;;;;;;;16.98;2.95;;;10.40;81.50;;;;;;5027333;28;20033;-70
2020/12/01 04:24:59;;;;;;;11.70;3.22;;;10.50;81.40;;;;;;5013640;28;20490;-71
2020/12/01 04:27:25;;;;;;;12.35;2.65;;;10.50;81.20;;;;;;5027608;28;20500;-70
2020/12/01 04:29:51;;;;;;;11.93;3.00;;;10.60;81.10;;;;;;5029101;28;20034;-70
2020/12/01 04:32:16;;;;;;;11.63;2.42;;;10.70;80.90;;;;;;5027978;28;20219;-70
2020/12/01 04:34:42;;;;;;;10.77;2.63;;;10.70;80.60;;;;;;5028306;28;20041;-70
2020/12/01 04:37:08;;;;;;;11.77;3.13;;;10.70;80.40;;;;;;5018826;28;20076;-71
2020/12/01 04:39:33;;;;;;;10.50;3.35;;;10.80;80.20;;;;;;5024768;28;20037;-70
2020/12/01 04:42:01;;;;;;;8.43;2.25;;;10.90;80.00;;;;;;5032125;28;20093;-70
2020/12/01 04:44:41;;;;;;;11.98;3.08;;;10.90;79.80;;;;;;5033047;28;20132;-70
2020/12/01 04:47:28;;;;;;;13.27;2.90;;;11.00;79.70;;;;;;5028965;28;20037;-71
2020/12/01 04:50:01;;;;;;;9.93;2.63;;;11.00;79.40;;;;;;5031315;28;20080;-70
2020/12/01 04:52:57;;;;;;;12.37;2.87;;;11.00;79.40;;;;;;5026252;28;20056;-71
2020/12/01 04:55:35;;;;;;;13.45;3.15;;;11.00;79.20;;;;;;5031573;28;20276;-70
2020/12/01 04:58:38;;;;;;;10.82;3.03;;;11.00;79.10;;;;;;5032802;28;20032;-70
2020/12/01 05:01:14;;;;;;;9.70;3.13;;;11.00;79.20;;;;;;5032249;28;20481;-70
2020/12/01 05:03:57;;;;;;;14.35;3.67;;;11.00;79.30;;;;;;5028201;28;20032;-70
2020/12/01 05:09:32;;;;;;;17.10;4.18;;;10.90;79.50;;;;;;5031513;28;20037;-70
2020/12/01 05:12:02;;;;;;;13.40;2.53;;;10.90;79.40;;;;;;5016258;28;20084;-70
2020/12/01 05:14:42;;;;;;;13.63;4.15;;;10.90;79.30;;;;;;5032093;28;20029;-70
2020/12/01 05:17:36;;;;;;;14.52;3.28;;;10.90;79.30;;;;;;5032841;28;20038;-70
2020/12/01 05:20:03;;;;;;;18.13;4.55;;;10.90;79.30;;;;;;5032036;28;20505;-70
2020/12/01 05:22:29;;;;;;;21.75;4.57;;;10.90;79.40;;;;;;5031783;28;20044;-70
2020/12/01 05:24:54;;;;;;;13.43;3.67;;;10.80;79.50;;;;;;5029210;28;20029;-69
2020/12/01 05:27:32;;;;;;;12.93;3.25;;;10.80;79.70;;;;;;5032093;28;20123;-70
2020/12/01 05:30:11;;;;;;;11.30;3.22;;;10.90;79.70;;;;;;5031899;28;20037;-70
2020/12/01 05:32:49;;;;;;;10.25;3.17;;;10.90;79.60;;;;;;5031749;28;20104;-70
2020/12/01 05:35:22;;;;;;;9.98;3.38;;;11.00;79.40;;;;;;5034651;28;20156;-70
2020/12/01 05:38:05;;;;;;;9.20;3.45;;;10.90;79.30;;;;;;5032202;28;20091;-70
2020/12/01 05:40:34;;;;;;;17.30;4.72;;;10.90;79.30;;;;;;5029914;28;20037;-70
2020/12/01 05:43:01;;;;;;;11.07;3.92;;;11.00;79.50;;;;;;5046425;28;20037;-70
2020/12/01 05:45:35;;;;;;;9.63;2.70;;;11.00;79.40;;;;;;5021199;28;20044;-69
2020/12/01 05:48:26;;;;;;;10.60;2.92;;;11.00;79.20;;;;;;5031998;28;20032;-71
2020/12/01 05:51:16;;;;;;;11.85;3.38;;;11.00;79.10;;;;;;5011794;28;20037;-72
2020/12/01 05:53:42;;;;;;;10.38;3.17;;;11.00;79.00;;;;;;5008903;28;20055;-70
2020/12/01 05:56:08;;;;;;;13.10;2.80;;;11.10;79.00;;;;;;5028771;28;20087;-70
2020/12/01 05:58:40;;;;;;;9.93;3.20;;;11.10;78.90;;;;;;5030026;28;20390;-70
2020/12/01 06:01:07;;;;;;;13.90;4.18;;;11.00;78.90;;;;;;5011012;28;20057;-70
2020/12/01 06:04:07;;;;;;;16.75;3.83;;;11.00;79.20;;;;;;5029099;28;20064;-70
2020/12/01 06:07:03;;;;;;;20.55;4.15;;;10.90;79.40;;;;;;5039648;28;20104;-70
2020/12/01 06:09:41;;;;;;;13.15;3.42;;;10.80;79.70;;;;;;5044415;28;20026;-69
2020/12/01 06:12:43;;;;;;;15.95;4.90;;;10.70;80.00;;;;;;5030505;28;20170;-69
2020/12/01 06:15:19;;;;;;;12.30;3.63;;;10.70;80.20;;;;;;5030104;28;20033;-71
2020/12/01 06:18:15;;;;;;;12.10;4.25;;;10.70;80.20;;;;;;5029517;28;20040;-70
2020/12/01 06:20:54;;;;;;;14.65;4.13;;;10.80;80.20;;;;;;5028505;28;20128;-69
2020/12/01 06:23:38;;;;;;;15.63;4.57;;;10.80;80.00;;;;;;5022127;28;20053;-70
2020/12/01 06:26:03;;;;;;;;;;;10.70;80.60;;;;;;5030179;28;20112;-69
2020/12/01 06:29:06;;;;;;;14.35;4.38;;;10.80;80.00;;;;;;5030642;28;20020;-69
2020/12/01 06:31:45;;;;;;;16.58;5.50;;;10.70;80.20;;;;;;5028848;28;20037;-69
2020/12/01 06:34:42;;;;;;;15.25;5.28;;;10.70;80.50;;;;;;5030344;28;20033;-73
2020/12/01 06:37:22;;;;;;;10.40;4.63;;;10.60;80.80;;;;;;5025940;28;20033;-69
2020/12/01 06:40:11;;;;;;;17.02;6.28;;;10.60;80.90;;;;;;5029015;28;20029;-69
2020/12/01 06:42:43;;;;;;;13.15;5.43;;;10.70;80.90;;;;;;5028908;28;20028;-71
2020/12/01 06:45:37;;;;;;;13.20;5.43;;;10.70;80.90;;;;;;5030257;28;20029;-72
2020/12/01 06:48:09;;;;;;;;;;;10.60;81.60;;;;;;5031185;28;20037;-70
2020/12/01 06:50:39;;;;;;;9.90;5.35;;;10.80;80.90;;;;;;5029977;28;19917;-70
2020/12/01 06:53:08;;;;;;;9.23;4.65;;;10.70;80.90;;;;;;5029647;28;20032;-73
2020/12/01 06:55:49;;;;;;;11.60;5.63;;;10.80;80.90;;;;;;5027918;28;20039;-70
2020/12/01 06:58:31;;;;;;;10.10;5.80;;;10.80;80.90;;;;;;5024945;28;20052;-69
2020/12/01 07:01:30;;;;;;;11.02;5.10;;;10.90;80.70;;;;;;5029235;28;20118;-75
2020/12/01 07:04:04;;;;;;;9.68;5.35;;;10.90;80.60;;;;;;5029537;28;20115;-71
2020/12/01 07:06:30;;;;;;;13.95;6.15;;;11.00;80.50;;;;;;5020483;28;20036;-70
2020/12/01 07:09:13;;;;;;;13.23;6.65;;;11.00;80.50;;;;;;5027673;28;20022;-73
2020/12/01 07:11:53;;;;;;;12.10;5.97;;;11.00;80.70;;;;;;5029901;28;20140;-70
2020/12/01 07:14:26;;;;;;;11.25;5.70;;;11.00;80.70;;;;;;5028681;28;20029;-68
2020/12/01 07:16:51;;;;;;;10.98;5.55;;;11.10;80.80;;;;;;5028825;28;20037;-70
2020/12/01 07:19:44;;;;;;;13.80;5.90;;;11.10;80.70;;;;;;5028200;28;20572;-69
2020/12/01 07:22:43;;;;;;;11.20;5.40;;;11.40;81.20;;;;;;5028727;28;20026;-70
2020/12/01 07:25:21;;;;;;;16.92;6.40;;;11.10;81.40;;;;;;5024551;28;20030;-69
2020/12/01 07:27:51;;;;;;;10.00;5.13;;;11.10;81.80;;;;;;5023729;28;20029;-70
2020/12/01 07:30:24;;;;;;;10.85;4.50;;;11.00;82.40;;;;;;5030801;28;20033;-69
2020/12/01 07:33:05;;;;;;;8.85;4.47;;;11.00;83.00;;;;;;5037126;28;20037;-70
2020/12/01 07:35:41;;;;;;;7.47;4.10;;;11.00;83.50;;;;;;5030209;28;20821;-69
2020/12/01 07:38:26;;;;;;;13.73;4.72;;;10.90;83.90;;;;;;5035042;28;20068;-71
2020/12/01 07:40:56;;;;;;;8.38;4.28;;;10.90;84.20;;;;;;5026898;28;20038;-69
2020/12/01 07:43:22;;;;;;;9.57;4.18;;;10.90;84.30;;;;;;5027987;28;20483;-70
2020/12/01 07:45:59;;;;;;;9.60;4.35;;;11.00;84.50;;;;;;5025393;28;20363;-69
2020/12/01 07:48:24;;;;;;;9.00;4.53;;;11.00;84.70;;;;;;5029490;28;20041;-70
2020/12/01 07:50:50;;;;;;;12.43;4.60;;;11.00;84.70;;;;;;5031153;28;20179;-70
2020/12/01 07:53:21;;;;;;;9.55;3.85;;;11.00;84.80;;;;;;5027974;28;20155;-69
2020/12/01 07:55:59;;;;;;;10.82;3.28;;;11.10;84.90;;;;;;5029715;28;20459;-69
2020/12/01 07:58:27;;;;;;;6.22;2.88;;;11.10;85.00;;;;;;5022447;28;20056;-70
2020/12/01 08:01:02;;;;;;;8.70;3.10;;;11.10;85.00;;;;;;5022823;28;20029;-70
2020/12/01 08:03:33;;;;;;;7.35;2.50;;;11.10;85.10;;;;;;5027041;28;20359;-73
2020/12/01 08:06:07;;;;;;;8.77;2.58;;;11.20;85.00;;;;;;5016399;28;20287;-75
2020/12/01 08:08:37;;;;;;;10.20;2.92;;;11.20;85.00;;;;;;5031989;28;20059;-71
2020/12/01 08:11:05;;;;;;;9.82;2.88;;;11.20;84.90;;;;;;5028838;28;20048;-72
2020/12/01 08:13:33;;;;;;;11.65;2.47;;;11.20;85.00;;;;;;5027966;28;20053;-71
2020/12/01 08:16:10;;;;;;;10.32;2.72;;;11.30;84.90;;;;;;5027541;28;20082;-72
2020/12/01 08:18:37;;;;;;;13.43;2.80;;;11.30;84.70;;;;;;5031805;28;20045;-70
2020/12/01 08:21:03;;;;;;;17.30;2.63;;;11.40;84.70;;;;;;5050984;28;20111;-71
2020/12/01 08:23:31;;;;;;;19.48;3.80;;;11.40;84.60;;;;;;5030315;28;20518;-70
2020/12/01 08:26:04;;;;;;;10.57;2.95;;;11.50;84.60;;;;;;5031062;28;20025;-71
2020/12/01 08:28:42;;;;;;;27.02;5.07;;;11.50;84.20;;;;;;5031598;28;20099;-70
2020/12/01 08:31:22;;;;;;;16.42;3.42;;;11.50;84.10;;;;;;5026782;28;20029;-70
2020/12/01 08:34:09;;;;;;;23.40;4.38;;;11.50;83.90;;;;;;5031725;28;20038;-71
2020/12/01 08:36:56;;;;;;;16.50;3.05;;;11.50;84.00;;;;;;5035220;28;20473;-72
2020/12/01 08:39:25;;;;;;;15.85;3.97;;;11.50;83.90;;;;;;5022528;28;20029;-71
2020/12/01 08:42:02;;;;;;;20.83;3.75;;;11.50;83.80;;;;;;5032296;28;20084;-71
2020/12/01 08:44:34;;;;;;;36.78;6.72;;;11.50;83.60;;;;;;5027037;28;20021;-71
2020/12/01 08:47:02;;;;;;;31.85;4.57;;;11.50;83.70;;;;;;5031972;28;20104;-71
2020/12/01 08:50:01;;;;;;;18.92;4.18;;;11.50;83.70;;;;;;5031106;28;20069;-72
2020/12/01 08:52:40;;;;;;;25.33;5.40;;;11.50;83.60;;;;;;5026072;28;20037;-71
2020/12/01 08:55:17;;;;;;;23.27;5.25;;;11.40;83.70;;;;;;5029227;28;20022;-71
2020/12/01 08:57:47;;;;;;;23.70;3.25;;;11.50;83.70;;;;;;5047272;28;20061;-71
2020/12/01 09:00:15;;;;;;;28.52;6.22;;;11.50;83.70;;;;;;5030507;28;20068;-69
2020/12/01 09:02:45;;;;;;;27.45;4.70;;;11.50;83.70;;;;;;5025604;28;20034;-73
2020/12/01 09:05:33;;;;;;;33.08;6.18;;;11.50;83.70;;;;;;5029159;28;20055;-74
2020/12/01 09:08:36;;;;;;;27.92;5.90;;;11.40;83.60;;;;;;5030755;28;20033;-72
2020/12/01 09:14:18;;;;;;;25.55;4.43;;;11.50;83.50;;;;;;5020438;28;20182;-71
2020/12/01 09:22:33;;;;;;;24.20;4.82;;;11.50;83.50;;;;;;5031591;28;20068;-70
2020/12/01 09:25:15;;;;;;;23.15;5.72;;;11.60;83.20;;;;;;5023327;28;20025;-70
2020/12/01 09:27:42;;;;;;;31.15;4.70;;;11.60;82.90;;;;;;5031101;28;20025;-71
2020/12/01 09:30:28;;;;;;;21.20;4.13;;;11.50;83.10;;;;;;5030117;28;20053;-71
2020/12/01 09:32:54;;;;;;;22.35;5.07;;;11.50;83.10;;;;;;5030148;28;20184;-71
2020/12/01 09:35:20;;;;;;;32.60;5.93;;;11.50;83.00;;;;;;5029900;28;20037;-69
2020/12/01 09:37:46;;;;;;;31.40;4.97;;;11.60;83.00;;;;;;5030162;28;20046;-72
2020/12/01 09:40:12;;;;;;;27.77;5.88;;;11.60;82.90;;;;;;5030245;28;20069;-72
2020/12/01 09:42:39;;;;;;;31.05;5.05;;;11.60;82.80;;;;;;5030640;28;20367;-71
2020/12/01 09:47:52;;;;;;;22.05;4.32;;;11.70;82.50;;;;;;5022338;28;20072;-71
2020/12/01 09:50:27;;;;;;;29.50;5.70;;;11.80;82.00;;;;;;5026434;28;20029;-71
2020/12/01 09:53:02;;;;;;;33.35;7.45;;;11.70;82.10;;;;;;5030378;28;20367;-70
2020/12/01 10:00:57;;;;;;;21.65;4.45;;;11.80;82.30;;;;;;5035100;28;20065;-71
2020/12/01 10:08:56;;;;;;;23.17;4.85;;;11.80;81.90;;;;;;4989946;28;20542;-71
2020/12/01 10:35:44;;;;;;;25.83;5.40;;;11.80;81.20;;;;;;5028401;28;20044;-71
2020/12/01 10:38:09;;;;;;;17.70;4.10;;;11.80;81.20;;;;;;5029596;28;20394;-72
2020/12/01 10:40:35;;;;;;;22.02;3.95;;;11.80;81.10;;;;;;5019097;28;20033;-70
2020/12/01 10:43:01;;;;;;;19.00;4.20;;;11.90;81.00;;;;;;5042388;28;20371;-70
2020/12/01 10:45:29;;;;;;;20.10;4.47;;;11.80;80.30;;;;;;5026788;28;20017;-70
2020/12/01 10:47:56;;;;;;;25.63;5.07;;;11.80;80.40;;;;;;5027479;28;20057;-71
2020/12/01 10:50:26;;;;;;;32.17;6.07;;;11.90;80.70;;;;;;5011611;28;20052;-70
2020/12/01 10:52:51;;;;;;;25.77;4.72;;;11.90;80.20;;;;;;5029335;28;20166;-71
2020/12/01 10:55:22;;;;;;;34.05;5.45;;;11.90;80.20;;;;;;5026270;28;20101;-70
2020/12/01 10:57:52;;;;;;;28.33;4.60;;;11.90;80.20;;;;;;5027493;28;20037;-71
2020/12/01 11:00:19;;;;;;;21.73;5.70;;;11.90;79.80;;;;;;5026863;28;20037;-71
2020/12/01 11:02:45;;;;;;;29.08;3.92;;;11.90;79.60;;;;;;5028478;28;20033;-70
2020/12/01 11:05:15;;;;;;;25.80;5.50;;;12.00;79.90;;;;;;5009985;28;20395;-74
2020/12/01 11:07:41;;;;;;;17.02;3.97;;;12.10;79.70;;;;;;5026880;28;20076;-70
2020/12/01 11:10:06;;;;;;;23.52;4.88;;;12.10;79.30;;;;;;5028015;28;20061;-70
2020/12/01 11:12:32;;;;;;;23.48;4.43;;;12.10;79.10;;;;;;5023980;28;20491;-70
2020/12/01 11:14:57;;;;;;;22.77;4.82;;;12.10;79.00;;;;;;5027440;28;20125;-70
2020/12/01 11:17:23;;;;;;;19.90;4.65;;;12.20;78.70;;;;;;5027996;28;20037;-71
2020/12/01 11:19:49;;;;;;;26.25;4.75;;;12.20;78.60;;;;;;5026595;28;20038;-71
2020/12/01 11:22:15;;;;;;;19.80;4.07;;;12.30;78.60;;;;;;5027099;28;20497;-71
2020/12/01 11:24:41;;;;;;;18.48;4.03;;;12.30;78.20;;;;;;5026743;28;20124;-71
2020/12/01 11:27:07;;;;;;;16.23;3.67;;;12.30;77.40;;;;;;5029308;28;20052;-71
2020/12/01 11:29:33;;;;;;;29.83;5.70;;;12.30;77.10;;;;;;5008592;28;20033;-72
2020/12/01 11:31:59;;;;;;;22.83;4.45;;;12.30;77.00;;;;;;5009954;28;20483;-70
2020/12/01 11:34:24;;;;;;;21.60;4.22;;;12.20;76.60;;;;;;5030158;28;20124;-71
2020/12/01 11:36:50;;;;;;;28.83;4.80;;;12.20;76.40;;;;;;5035816;28;20126;-70
2020/12/01 11:39:16;;;;;;;15.18;3.40;;;12.20;77.00;;;;;;5026780;28;20128;-71
2020/12/01 11:41:42;;;;;;;26.15;4.75;;;12.20;77.00;;;;;;5013264;28;20041;-71
2020/12/01 11:44:08;;;;;;;23.55;3.63;;;12.30;77.00;;;;;;5028694;28;20343;-71
2020/12/01 11:46:34;;;;;;;23.63;3.85;;;12.40;76.80;;;;;;5026821;28;20427;-70
2020/12/01 11:49:03;;;;;;;23.27;4.38;;;12.40;76.60;;;;;;5034491;28;20056;-71
2020/12/01 11:51:29;;;;;;;21.75;3.80;;;12.40;76.10;;;;;;5027185;28;20041;-72
2020/12/01 11:53:55;;;;;;;34.83;5.05;;;12.40;76.00;;;;;;5027063;28;20037;-71
2020/12/01 11:56:21;;;;;;;25.75;5.60;;;12.40;76.20;;;;;;5032399;28;20025;-70
2020/12/01 11:58:47;;;;;;;17.77;3.65;;;12.40;76.30;;;;;;5026082;28;20095;-71
2020/12/01 12:01:15;;;;;;;18.80;4.65;;;12.50;75.70;;;;;;5028088;28;20037;-72
2020/12/01 12:03:41;;;;;;;18.77;4.30;;;12.40;75.70;;;;;;5018035;28;20058;-71
2020/12/01 12:06:07;;;;;;;13.50;2.95;;;12.40;75.60;;;;;;5008884;28;20116;-71
2020/12/01 12:08:33;;;;;;;13.40;3.40;;;12.40;76.00;;;;;;5024925;28;20110;-71
2020/12/01 12:10:58;;;;;;;20.88;5.22;;;12.40;76.00;;;;;;5025718;28;20029;-73
2020/12/01 12:13:24;;;;;;;22.75;4.47;;;12.40;75.80;;;;;;5027370;28;20498;-71
2020/12/01 12:15:50;;;;;;;26.73;6.18;;;12.40;75.60;;;;;;5027811;28;20367;-71
2020/12/01 12:18:15;;;;;;;18.73;3.63;;;12.50;75.60;;;;;;5027269;28;20057;-72
2020/12/01 12:20:41;;;;;;;27.33;4.22;;;12.60;75.40;;;;;;5026088;28;20121;-71
2020/12/01 12:23:07;;;;;;;19.13;4.18;;;12.50;75.20;;;;;;5025648;28;20060;-72
2020/12/01 12:25:32;;;;;;;20.20;3.45;;;12.50;74.90;;;;;;5025504;28;20363;-71
2020/12/01 12:27:58;;;;;;;16.45;3.45;;;12.50;75.10;;;;;;5025260;28;20048;-70
2020/12/01 12:30:23;;;;;;;18.10;4.43;;;12.40;74.60;;;;;;5027491;28;20030;-74
2020/12/01 12:32:49;;;;;;;16.92;4.18;;;12.40;74.40;;;;;;5025407;28;20033;-71
2020/12/01 12:35:15;;;;;;;22.00;5.45;;;12.40;74.40;;;;;;5027159;28;20029;-71
2020/12/01 12:37:41;;;;;;;22.63;4.78;;;12.50;74.90;;;;;;5027036;28;20037;-71
2020/12/01 12:40:07;;;;;;;21.88;5.32;;;12.60;74.80;;;;;;5026035;28;20103;-71
2020/12/01 12:42:33;;;;;;;17.88;4.05;;;12.50;74.20;;;;;;5008592;28;20109;-71
2020/12/01 12:44:59;;;;;;;21.15;3.65;;;12.60;74.40;;;;;;5028729;28;20485;-72
2020/12/01 12:47:24;;;;;;;22.75;4.30;;;12.60;74.40;;;;;;5028303;28;20037;-71
2020/12/01 12:49:50;;;;;;;26.20;4.05;;;12.60;74.20;;;;;;5023452;28;20442;-71
2020/12/01 12:52:16;;;;;;;13.50;3.90;;;12.70;73.40;;;;;;5028833;28;20355;-71
2020/12/01 12:54:41;;;;;;;14.95;3.47;;;12.70;73.50;;;;;;5025159;28;20044;-70
2020/12/01 12:57:07;;;;;;;30.98;3.83;;;12.80;73.00;;;;;;5028245;28;20029;-70
2020/12/01 12:59:33;;;;;;;26.05;4.30;;;12.80;73.10;;;;;;5026269;28;20048;-71
2020/12/01 13:01:58;;;;;;;15.48;2.70;;;12.80;72.80;;;;;;5030853;28;20039;-70
2020/12/01 13:04:24;;;;;;;18.10;3.88;;;12.80;72.90;;;;;;5027193;28;21593;-70
2020/12/01 13:06:50;;;;;;;17.58;3.25;;;12.80;72.30;;;;;;5030588;28;20029;-73
2020/12/01 13:09:16;;;;;;;18.25;3.85;;;12.70;72.40;;;;;;5029694;28;20017;-70
2020/12/01 13:11:41;;;;;;;14.27;2.83;;;12.80;72.80;;;;;;5031296;28;20041;-70
2020/12/01 13:14:07;;;;;;;13.88;3.25;;;12.90;72.10;;;;;;5029072;28;20069;-70
2020/12/01 13:16:33;;;;;;;17.45;3.05;;;12.90;71.80;;;;;;5013280;28;20029;-70
2020/12/01 13:18:58;;;;;;;31.55;6.05;;;12.90;70.80;;;;;;5024956;28;20189;-70
2020/12/01 13:21:24;;;;;;;12.88;3.25;;;12.80;71.60;;;;;;5028571;28;20435;-69
2020/12/01 13:23:50;;;;;;;24.27;4.35;;;12.70;71.70;;;;;;5029502;28;20451;-70
2020/12/01 13:26:19;;;;;;;18.52;3.08;;;12.70;71.60;;;;;;5025709;28;20423;-72
2020/12/01 13:28:45;;;;;;;29.33;4.25;;;12.70;71.30;;;;;;5029841;28;20053;-71
2020/12/01 13:31:11;;;;;;;19.50;2.83;;;12.70;71.60;;;;;;5030835;28;20048;-74
2020/12/01 13:33:37;;;;;;;22.10;4.20;;;12.80;71.40;;;;;;5027590;28;20034;-72
2020/12/01 13:36:03;;;;;;;14.73;4.53;;;12.80;71.10;;;;;;5031415;28;20622;-70
2020/12/01 13:38:28;;;;;;;13.10;3.38;;;12.80;71.20;;;;;;5028022;28;21000;-70
2020/12/01 13:40:54;;;;;;;16.23;3.67;;;13.00;71.60;;;;;;5027950;28;20037;-71